ENAL/AES METAR and TAF weather

Enter ICAO airport designator
Station Type Date Time Source
ENAL METAR 2022/06/27 18:50 UTC NOAA

ENAL 271850Z 05006KT 9999 FEW010 SCT025 BKN140 14/13 Q1016


Station Type Date Time Source
ENAL Decoded METAR 2022/06/27 18:50 UTC NOAA

Alesund / Vigra, Norway (ENAL) 62-34N 006-07E 22M
Jun 27, 2022 - 02:50 PM EDT / 2022.06.27 1850 UTC
Wind: from the NE (050 degrees) at 7 MPH (6 KT):0
Visibility: greater than 7 mile(s):0
Sky conditions: mostly cloudy
Temperature: 57 F (14 C)
Dew Point: 55 F (13 C)
Relative Humidity: 93%
Pressure (altimeter): 30.00 in. Hg (1016 hPa)
ob: ENAL 271850Z 05006KT 9999 FEW010 SCT025 BKN140 14/13 Q1016
cycle: 19

Station Type Date Time Source
ENAL TAF UTC NOAA

Error!

Example: see airport list